sensor_id;sensor_type;location;lat;lon;timestamp;pressure;altitude;pressure_sealevel;temperature;humidity
80180;BME280;69505;52.134;5.438;2023-10-19T00:00:56;99518.59;;;9.31;100.00
80180;BME280;69505;52.134;5.438;2023-10-19T00:03:24;99513.88;;;9.34;100.00
80180;BME280;69505;52.134;5.438;2023-10-19T00:05:50;99507.44;;;9.37;100.00
80180;BME280;69505;52.134;5.438;2023-10-19T00:08:17;99506.44;;;9.38;100.00
80180;BME280;69505;52.134;5.438;2023-10-19T00:10:50;99501.69;;;9.42;100.00
80180;BME280;69505;52.134;5.438;2023-10-19T00:13:38;99499.72;;;9.44;100.00
80180;BME280;69505;52.134;5.438;2023-10-19T00:16:06;99501.25;;;9.46;100.00
80180;BME280;69505;52.134;5.438;2023-10-19T00:18:39;99500.13;;;9.49;100.00
80180;BME280;69505;52.134;5.438;2023-10-19T00:21:10;99484.91;;;9.51;100.00
80180;BME280;69505;52.134;5.438;2023-10-19T00:23:54;99486.47;;;9.53;100.00
80180;BME280;69505;52.134;5.438;2023-10-19T00:26:25;99488.94;;;9.55;100.00
80180;BME280;69505;52.134;5.438;2023-10-19T00:28:53;99488.81;;;9.57;100.00
80180;BME280;69505;52.134;5.438;2023-10-19T00:31:23;99478.91;;;9.59;100.00
80180;BME280;69505;52.134;5.438;2023-10-19T00:33:50;99492.84;;;9.61;100.00
80180;BME280;69505;52.134;5.438;2023-10-19T00:36:21;99490.88;;;9.63;100.00
80180;BME280;69505;52.134;5.438;2023-10-19T00:38:50;99495.03;;;9.65;100.00
80180;BME280;69505;52.134;5.438;2023-10-19T00:41:18;99487.78;;;9.67;100.00
80180;BME280;69505;52.134;5.438;2023-10-19T00:44:04;99487.50;;;9.70;100.00
80180;BME280;69505;52.134;5.438;2023-10-19T00:46:38;99484.56;;;9.73;100.00
80180;BME280;69505;52.134;5.438;2023-10-19T00:49:08;99485.25;;;9.75;100.00
80180;BME280;69505;52.134;5.438;2023-10-19T00:51:38;99479.66;;;9.79;100.00
80180;BME280;69505;52.134;5.438;2023-10-19T00:54:42;99479.34;;;9.82;100.00
80180;BME280;69505;52.134;5.438;2023-10-19T00:57:12;99464.81;;;9.86;100.00
80180;BME280;69505;52.134;5.438;2023-10-19T00:59:41;99468.16;;;9.88;100.00
80180;BME280;69505;52.134;5.438;2023-10-19T01:02:21;99461.84;;;9.89;100.00
80180;BME280;69505;52.134;5.438;2023-10-19T01:04:50;99466.75;;;9.93;100.00
80180;BME280;69505;52.134;5.438;2023-10-19T01:07:20;99467.25;;;9.97;100.00
80180;BME280;69505;52.134;5.438;2023-10-19T01:09:55;99464.31;;;10.00;100.00
80180;BME280;69505;52.134;5.438;2023-10-19T01:12:23;99469.31;;;10.03;100.00
80180;BME280;69505;52.134;5.438;2023-10-19T01:17:34;99459.78;;;10.10;100.00
80180;BME280;69505;52.134;5.438;2023-10-19T01:20:16;99451.53;;;10.13;100.00
80180;BME280;69505;52.134;5.438;2023-10-19T01:22:56;99447.59;;;10.18;100.00
80180;BME280;69505;52.134;5.438;2023-10-19T01:28:09;99456.09;;;10.21;100.00
80180;BME280;69505;52.134;5.438;2023-10-19T01:30:37;99452.28;;;10.24;100.00
80180;BME280;69505;52.134;5.438;2023-10-19T01:33:05;99457.31;;;10.27;100.00
80180;BME280;69505;52.134;5.438;2023-10-19T01:35:39;99439.41;;;10.29;100.00
80180;BME280;69505;52.134;5.438;2023-10-19T01:38:24;99434.81;;;10.31;100.00
80180;BME280;69505;52.134;5.438;2023-10-19T01:40:51;99433.69;;;10.33;100.00
80180;BME280;69505;52.134;5.438;2023-10-19T01:43:20;99438.81;;;10.35;100.00
80180;BME280;69505;52.134;5.438;2023-10-19T01:45:47;99430.72;;;10.36;100.00
80180;BME280;69505;52.134;5.438;2023-10-19T01:48:14;99433.22;;;10.38;100.00
80180;BME280;69505;52.134;5.438;2023-10-19T01:50:42;99424.81;;;10.43;100.00
80180;BME280;69505;52.134;5.438;2023-10-19T01:53:09;99427.31;;;10.44;100.00
80180;BME280;69505;52.134;5.438;2023-10-19T01:55:43;99428.97;;;10.45;100.00
80180;BME280;69505;52.134;5.438;2023-10-19T01:58:10;99427.38;;;10.52;100.00
80180;BME280;69505;52.134;5.438;2023-10-19T02:00:37;99416.84;;;10.61;100.00
80180;BME280;69505;52.134;5.438;2023-10-19T02:03:07;99418.50;;;10.62;100.00
80180;BME280;69505;52.134;5.438;2023-10-19T02:05:34;99427.00;;;10.65;100.00
80180;BME280;69505;52.134;5.438;2023-10-19T02:08:08;99420.06;;;10.72;100.00
80180;BME280;69505;52.134;5.438;2023-10-19T02:10:35;99418.63;;;10.78;100.00
80180;BME280;69505;52.134;5.438;2023-10-19T02:13:02;99418.00;;;10.84;100.00
80180;BME280;69505;52.134;5.438;2023-10-19T02:15:34;99417.38;;;10.90;100.00
80180;BME280;69505;52.134;5.438;2023-10-19T02:18:03;99419.91;;;10.92;100.00
80180;BME280;69505;52.134;5.438;2023-10-19T02:20:31;99414.09;;;10.96;100.00
80180;BME280;69505;52.134;5.438;2023-10-19T02:23:09;99411.13;;;11.00;100.00
80180;BME280;69505;52.134;5.438;2023-10-19T02:25:36;99418.78;;;11.03;100.00
80180;BME280;69505;52.134;5.438;2023-10-19T02:28:04;99410.66;;;11.04;100.00
80180;BME280;69505;52.134;5.438;2023-10-19T02:30:33;99411.03;;;11.09;100.00
80180;BME280;69505;52.134;5.438;2023-10-19T02:33:02;99417.69;;;11.13;100.00
80180;BME280;69505;52.134;5.438;2023-10-19T02:35:32;99415.91;;;11.22;100.00
80180;BME280;69505;52.134;5.438;2023-10-19T02:38:01;99415.91;;;11.22;100.00
80180;BME280;69505;52.134;5.438;2023-10-19T02:40:30;99409.91;;;11.20;100.00
80180;BME280;69505;52.134;5.438;2023-10-19T02:43:00;99417.25;;;11.26;100.00
80180;BME280;69505;52.134;5.438;2023-10-19T02:45:29;99411.63;;;11.29;100.00
80180;BME280;69505;52.134;5.438;2023-10-19T02:47:58;99407.84;;;11.32;100.00
80180;BME280;69505;52.134;5.438;2023-10-19T02:50:25;99400.34;;;11.35;100.00
80180;BME280;69505;52.134;5.438;2023-10-19T02:52:52;99404.34;;;11.40;100.00
80180;BME280;69505;52.134;5.438;2023-10-19T02:55:20;99400.72;;;11.41;100.00
80180;BME280;69505;52.134;5.438;2023-10-19T02:57:50;99400.41;;;11.44;100.00
80180;BME280;69505;52.134;5.438;2023-10-19T03:00:17;99401.44;;;11.51;100.00
80180;BME280;69505;52.134;5.438;2023-10-19T03:02:49;99409.09;;;11.54;100.00
80180;BME280;69505;52.134;5.438;2023-10-19T03:05:18;99399.13;;;11.56;100.00
80180;BME280;69505;52.134;5.438;2023-10-19T03:07:45;99397.97;;;11.58;100.00
80180;BME280;69505;52.134;5.438;2023-10-19T03:10:11;99399.44;;;11.61;100.00
80180;BME280;69505;52.134;5.438;2023-10-19T03:12:50;99393.69;;;11.66;100.00
80180;BME280;69505;52.134;5.438;2023-10-19T03:15:17;99385.69;;;11.66;100.00
80180;BME280;69505;52.134;5.438;2023-10-19T03:17:47;99398.81;;;11.67;100.00
80180;BME280;69505;52.134;5.438;2023-10-19T03:20:15;99398.50;;;11.70;100.00
80180;BME280;69505;52.134;5.438;2023-10-19T03:22:44;99391.19;;;11.72;100.00
80180;BME280;69505;52.134;5.438;2023-10-19T03:25:13;99389.22;;;11.74;100.00
80180;BME280;69505;52.134;5.438;2023-10-19T03:27:58;99388.88;;;11.77;100.00
80180;BME280;69505;52.134;5.438;2023-10-19T03:30:35;99386.88;;;11.79;100.00
80180;BME280;69505;52.134;5.438;2023-10-19T03:33:06;99383.91;;;11.83;100.00
80180;BME280;69505;52.134;5.438;2023-10-19T03:35:38;99377.44;;;11.85;100.00
80180;BME280;69505;52.134;5.438;2023-10-19T03:38:08;99382.59;;;11.87;100.00
80180;BME280;69505;52.134;5.438;2023-10-19T03:40:41;99375.31;;;11.89;100.00
80180;BME280;69505;52.134;5.438;2023-10-19T03:43:08;99366.63;;;11.87;100.00
80180;BME280;69505;52.134;5.438;2023-10-19T03:45:44;99374.97;;;11.92;100.00
80180;BME280;69505;52.134;5.438;2023-10-19T03:48:19;99374.16;;;11.91;100.00
80180;BME280;69505;52.134;5.438;2023-10-19T03:51:00;99368.69;;;11.93;100.00
80180;BME280;69505;52.134;5.438;2023-10-19T03:53:28;99374.47;;;11.96;100.00
80180;BME280;69505;52.134;5.438;2023-10-19T03:55:57;99368.34;;;11.96;100.00
80180;BME280;69505;52.134;5.438;2023-10-19T03:58:23;99354.72;;;11.99;100.00
80180;BME280;69505;52.134;5.438;2023-10-19T04:00:50;99351.38;;;11.97;100.00
80180;BME280;69505;52.134;5.438;2023-10-19T04:03:17;99352.22;;;11.97;100.00
80180;BME280;69505;52.134;5.438;2023-10-19T04:05:44;99354.06;;;11.97;100.00
80180;BME280;69505;52.134;5.438;2023-10-19T04:08:15;99361.69;;;12.00;100.00
80180;BME280;69505;52.134;5.438;2023-10-19T04:10:46;99355.38;;;12.01;100.00
80180;BME280;69505;52.134;5.438;2023-10-19T04:13:34;99353.06;;;12.06;100.00
80180;BME280;69505;52.134;5.438;2023-10-19T04:16:02;99357.38;;;12.07;100.00
80180;BME280;69505;52.134;5.438;2023-10-19T04:18:29;99352.56;;;12.11;100.00
80180;BME280;69505;52.134;5.438;2023-10-19T04:20:56;99341.09;;;12.10;100.00
80180;BME280;69505;52.134;5.438;2023-10-19T04:23:23;99348.25;;;12.10;100.00
80180;BME280;69505;52.134;5.438;2023-10-19T04:25:57;99338.41;;;12.10;100.00
80180;BME280;69505;52.134;5.438;2023-10-19T04:28:24;99341.41;;;12.07;100.00
80180;BME280;69505;52.134;5.438;2023-10-19T04:30:57;99332.75;;;12.05;100.00
80180;BME280;69505;52.134;5.438;2023-10-19T04:33:30;99340.41;;;12.00;100.00
80180;BME280;69505;52.134;5.438;2023-10-19T04:35:58;99345.03;;;11.90;100.00
80180;BME280;69505;52.134;5.438;2023-10-19T04:38:27;99356.16;;;11.85;100.00
80180;BME280;69505;52.134;5.438;2023-10-19T04:40:55;99356.66;;;11.81;100.00
80180;BME280;69505;52.134;5.438;2023-10-19T04:43:21;99360.28;;;11.79;100.00
80180;BME280;69505;52.134;5.438;2023-10-19T04:45:48;99357.97;;;11.76;100.00
80180;BME280;69505;52.134;5.438;2023-10-19T04:48:14;99345.97;;;11.72;100.00
80180;BME280;69505;52.134;5.438;2023-10-19T04:50:41;99351.28;;;11.64;100.00
80180;BME280;69505;52.134;5.438;2023-10-19T04:53:08;99355.59;;;11.57;100.00
80180;BME280;69505;52.134;5.438;2023-10-19T04:55:35;99355.91;;;11.54;100.00
80180;BME280;69505;52.134;5.438;2023-10-19T04:58:01;99358.22;;;11.49;100.00
80180;BME280;69505;52.134;5.438;2023-10-19T05:00:28;99360.69;;;11.50;100.00
80180;BME280;69505;52.134;5.438;2023-10-19T05:02:54;99370.69;;;11.56;100.00
80180;BME280;69505;52.134;5.438;2023-10-19T05:05:21;99367.88;;;11.58;100.00
80180;BME280;69505;52.134;5.438;2023-10-19T05:07:48;99362.22;;;11.61;100.00
80180;BME280;69505;52.134;5.438;2023-10-19T05:10:15;99370.88;;;11.63;100.00
80180;BME280;69505;52.134;5.438;2023-10-19T05:12:42;99368.88;;;11.65;100.00
80180;BME280;69505;52.134;5.438;2023-10-19T05:15:08;99379.53;;;11.65;100.00
80180;BME280;69505;52.134;5.438;2023-10-19T05:17:35;99370.22;;;11.69;100.00
80180;BME280;69505;52.134;5.438;2023-10-19T05:20:02;99377.22;;;11.70;100.00
80180;BME280;69505;52.134;5.438;2023-10-19T05:22:32;99377.91;;;11.72;100.00
80180;BME280;69505;52.134;5.438;2023-10-19T05:24:59;99375.91;;;11.74;100.00
80180;BME280;69505;52.134;5.438;2023-10-19T05:27:27;99380.22;;;11.75;100.00
80180;BME280;69505;52.134;5.438;2023-10-19T05:29:53;99382.56;;;11.78;100.00
80180;BME280;69505;52.134;5.438;2023-10-19T05:32:20;99387.25;;;11.85;100.00
80180;BME280;69505;52.134;5.438;2023-10-19T05:34:47;99393.94;;;11.89;100.00
80180;BME280;69505;52.134;5.438;2023-10-19T05:37:14;99392.94;;;11.90;100.00
80180;BME280;69505;52.134;5.438;2023-10-19T05:39:43;99385.63;;;11.92;100.00
80180;BME280;69505;52.134;5.438;2023-10-19T05:42:10;99392.63;;;11.93;100.00
80180;BME280;69505;52.134;5.438;2023-10-19T05:44:37;99397.28;;;11.99;100.00
80180;BME280;69505;52.134;5.438;2023-10-19T05:47:04;99400.44;;;12.03;100.00
80180;BME280;69505;52.134;5.438;2023-10-19T05:49:32;99409.25;;;12.03;100.00
80180;BME280;69505;52.134;5.438;2023-10-19T05:51:59;99395.94;;;12.03;100.00
80180;BME280;69505;52.134;5.438;2023-10-19T05:54:26;99387.97;;;12.03;100.00
80180;BME280;69505;52.134;5.438;2023-10-19T05:56:53;99405.94;;;12.09;100.00
80180;BME280;69505;52.134;5.438;2023-10-19T05:59:20;99406.59;;;12.11;100.00
80180;BME280;69505;52.134;5.438;2023-10-19T06:01:47;99401.94;;;12.13;100.00
80180;BME280;69505;52.134;5.438;2023-10-19T06:04:15;99406.97;;;12.16;100.00
80180;BME280;69505;52.134;5.438;2023-10-19T06:06:46;99409.47;;;12.18;100.00
80180;BME280;69505;52.134;5.438;2023-10-19T06:09:12;99408.31;;;12.21;100.00
80180;BME280;69505;52.134;5.438;2023-10-19T06:11:39;99413.47;;;12.22;100.00
80180;BME280;69505;52.134;5.438;2023-10-19T06:14:09;99404.63;;;12.22;100.00
80180;BME280;69505;52.134;5.438;2023-10-19T06:16:36;99409.97;;;12.22;100.00
80180;BME280;69505;52.134;5.438;2023-10-19T06:19:03;99395.00;;;12.21;100.00
80180;BME280;69505;52.134;5.438;2023-10-19T06:21:30;99399.97;;;12.24;100.00
80180;BME280;69505;52.134;5.438;2023-10-19T06:23:58;99402.31;;;12.27;100.00
80180;BME280;69505;52.134;5.438;2023-10-19T06:26:24;99401.16;;;12.29;100.00
80180;BME280;69505;52.134;5.438;2023-10-19T06:28:51;99404.63;;;12.30;100.00
80180;BME280;69505;52.134;5.438;2023-10-19T06:31:23;99406.31;;;12.31;100.00
80180;BME280;69505;52.134;5.438;2023-10-19T06:33:50;99407.81;;;12.33;100.00
80180;BME280;69505;52.134;5.438;2023-10-19T06:36:17;99409.81;;;12.31;100.00
80180;BME280;69505;52.134;5.438;2023-10-19T06:38:45;99411.31;;;12.34;100.00
80180;BME280;69505;52.134;5.438;2023-10-19T06:41:13;99410.47;;;12.33;100.00
80180;BME280;69505;52.134;5.438;2023-10-19T06:43:40;99411.31;;;12.34;100.00
80180;BME280;69505;52.134;5.438;2023-10-19T06:46:08;99407.66;;;12.35;100.00
80180;BME280;69505;52.134;5.438;2023-10-19T06:48:38;99404.31;;;12.33;100.00
80180;BME280;69505;52.134;5.438;2023-10-19T06:51:05;99412.13;;;12.34;100.00
80180;BME280;69505;52.134;5.438;2023-10-19T06:53:32;99416.31;;;12.37;100.00
80180;BME280;69505;52.134;5.438;2023-10-19T06:56:00;99417.28;;;12.36;100.00
80180;BME280;69505;52.134;5.438;2023-10-19T06:58:27;99434.97;;;12.37;100.00
80180;BME280;69505;52.134;5.438;2023-10-19T07:00:54;99435.44;;;12.41;100.00
80180;BME280;69505;52.134;5.438;2023-10-19T07:03:26;99436.97;;;12.43;100.00
80180;BME280;69505;52.134;5.438;2023-10-19T07:05:55;99441.13;;;12.46;100.00
80180;BME280;69505;52.134;5.438;2023-10-19T07:08:23;99439.13;;;12.48;100.00
80180;BME280;69505;52.134;5.438;2023-10-19T07:10:49;99443.28;;;12.50;100.00
80180;BME280;69505;52.134;5.438;2023-10-19T07:13:16;99449.28;;;12.52;100.00
80180;BME280;69505;52.134;5.438;2023-10-19T07:15:47;99440.13;;;12.55;100.00
80180;BME280;69505;52.134;5.438;2023-10-19T07:18:15;99447.78;;;12.58;100.00
80180;BME280;69505;52.134;5.438;2023-10-19T07:20:43;99449.59;;;12.57;100.00
80180;BME280;69505;52.134;5.438;2023-10-19T07:23:09;99446.63;;;12.61;100.00
80180;BME280;69505;52.134;5.438;2023-10-19T07:25:49;99454.94;;;12.66;100.00
80180;BME280;69505;52.134;5.438;2023-10-19T07:28:22;99453.94;;;12.67;100.00
80180;BME280;69505;52.134;5.438;2023-10-19T07:30:49;99452.09;;;12.67;100.00
80180;BME280;69505;52.134;5.438;2023-10-19T07:33:20;99457.94;;;12.71;100.00
80180;BME280;69505;52.134;5.438;2023-10-19T07:35:48;99457.75;;;12.72;100.00
80180;BME280;69505;52.134;5.438;2023-10-19T07:38:22;99461.75;;;12.76;100.00
80180;BME280;69505;52.134;5.438;2023-10-19T07:40:49;99454.25;;;12.80;100.00
80180;BME280;69505;52.134;5.438;2023-10-19T07:43:16;99464.59;;;12.83;100.00
80180;BME280;69505;52.134;5.438;2023-10-19T07:45:42;99464.94;;;12.88;100.00
80180;BME280;69505;52.134;5.438;2023-10-19T07:48:09;99462.78;;;12.92;100.00
80180;BME280;69505;52.134;5.438;2023-10-19T07:50:39;99467.44;;;12.98;100.00
80180;BME280;69505;52.134;5.438;2023-10-19T07:53:10;99463.75;;;12.99;100.00
80180;BME280;69505;52.134;5.438;2023-10-19T07:55:37;99465.91;;;13.04;100.00
80180;BME280;69505;52.134;5.438;2023-10-19T07:58:06;99462.91;;;13.07;100.00
80180;BME280;69505;52.134;5.438;2023-10-19T08:00:33;99460.25;;;13.07;100.00
80180;BME280;69505;52.134;5.438;2023-10-19T08:03:01;99469.91;;;13.08;100.00
80180;BME280;69505;52.134;5.438;2023-10-19T08:05:29;99468.91;;;13.09;100.00
80180;BME280;69505;52.134;5.438;2023-10-19T08:07:56;99465.22;;;13.10;100.00
80180;BME280;69505;52.134;5.438;2023-10-19T08:10:27;99470.25;;;13.13;100.00
80180;BME280;69505;52.134;5.438;2023-10-19T08:12:54;99464.56;;;13.16;100.00
80180;BME280;69505;52.134;5.438;2023-10-19T08:15:22;99467.88;;;13.18;100.00
80180;BME280;69505;52.134;5.438;2023-10-19T08:17:50;99459.56;;;13.21;100.00
80180;BME280;69505;52.134;5.438;2023-10-19T08:20:17;99457.22;;;13.26;100.00
80180;BME280;69505;52.134;5.438;2023-10-19T08:22:56;99463.22;;;13.28;100.00
80180;BME280;69505;52.134;5.438;2023-10-19T08:25:25;99461.25;;;13.30;100.00
80180;BME280;69505;52.134;5.438;2023-10-19T08:28:15;99452.06;;;13.33;100.00
80180;BME280;69505;52.134;5.438;2023-10-19T08:30:42;99463.72;;;13.40;100.00
80180;BME280;69505;52.134;5.438;2023-10-19T08:33:11;99461.53;;;13.44;100.00
80180;BME280;69505;52.134;5.438;2023-10-19T08:35:40;99457.34;;;13.49;100.00
80180;BME280;69505;52.134;5.438;2023-10-19T08:38:07;99462.84;;;13.56;100.00
80180;BME280;69505;52.134;5.438;2023-10-19T08:40:38;99456.97;;;13.60;100.00
80180;BME280;69505;52.134;5.438;2023-10-19T08:43:06;99463.81;;;13.63;100.00
80180;BME280;69505;52.134;5.438;2023-10-19T08:45:34;99448.94;;;13.69;100.00
80180;BME280;69505;52.134;5.438;2023-10-19T08:48:01;99457.44;;;13.72;100.00
80180;BME280;69505;52.134;5.438;2023-10-19T08:50:33;99449.56;;;13.79;100.00
80180;BME280;69505;52.134;5.438;2023-10-19T08:53:06;99446.22;;;13.85;100.00
80180;BME280;69505;52.134;5.438;2023-10-19T08:55:35;99452.69;;;13.91;100.00
80180;BME280;69505;52.134;5.438;2023-10-19T08:58:16;99449.66;;;13.94;100.00
80180;BME280;69505;52.134;5.438;2023-10-19T09:00:45;99444.16;;;13.95;100.00
80180;BME280;69505;52.134;5.438;2023-10-19T09:03:14;99440.78;;;14.01;100.00
80180;BME280;69505;52.134;5.438;2023-10-19T09:05:44;99444.41;;;14.09;100.00
80180;BME280;69505;52.134;5.438;2023-10-19T09:08:17;99450.41;;;14.11;100.00
80180;BME280;69505;52.134;5.438;2023-10-19T09:10:45;99451.56;;;14.16;100.00
80180;BME280;69505;52.134;5.438;2023-10-19T09:13:13;99441.19;;;14.21;100.00
80180;BME280;69505;52.134;5.438;2023-10-19T09:15:42;99446.78;;;14.35;100.00
80180;BME280;69505;52.134;5.438;2023-10-19T09:18:17;99438.28;;;14.54;100.00
80180;BME280;69505;52.134;5.438;2023-10-19T09:20:47;99441.50;;;14.73;100.00
80180;BME280;69505;52.134;5.438;2023-10-19T09:23:23;99431.31;;;14.91;100.00
80180;BME280;69505;52.134;5.438;2023-10-19T09:25:52;99431.69;;;15.03;100.00
80180;BME280;69505;52.134;5.438;2023-10-19T09:28:22;99432.56;;;15.04;100.00
80180;BME280;69505;52.134;5.438;2023-10-19T09:30:51;99433.84;;;15.08;100.00
80180;BME280;69505;52.134;5.438;2023-10-19T09:33:19;99438.56;;;15.20;100.00
80180;BME280;69505;52.134;5.438;2023-10-19T09:35:49;99442.72;;;15.23;100.00
80180;BME280;69505;52.134;5.438;2023-10-19T09:38:17;99438.28;;;15.30;100.00
80180;BME280;69505;52.134;5.438;2023-10-19T09:40:52;99439.75;;;15.33;100.00
80180;BME280;69505;52.134;5.438;2023-10-19T09:43:34;99440.31;;;15.28;100.00
80180;BME280;69505;52.134;5.438;2023-10-19T09:46:10;99434.94;;;15.28;100.00
80180;BME280;69505;52.134;5.438;2023-10-19T09:48:41;99426.28;;;15.26;100.00
80180;BME280;69505;52.134;5.438;2023-10-19T09:51:09;99436.53;;;15.37;100.00
80180;BME280;69505;52.134;5.438;2023-10-19T09:53:39;99425.47;;;15.40;100.00
80180;BME280;69505;52.134;5.438;2023-10-19T09:56:10;99422.13;;;15.38;100.00
80180;BME280;69505;52.134;5.438;2023-10-19T09:58:48;99435.72;;;15.52;100.00
80180;BME280;69505;52.134;5.438;2023-10-19T10:01:16;99418.50;;;15.91;100.00
80180;BME280;69505;52.134;5.438;2023-10-19T10:06:17;99399.56;;;16.29;100.00
80180;BME280;69505;52.134;5.438;2023-10-19T10:08:47;99402.63;;;16.26;100.00
80180;BME280;69505;52.134;5.438;2023-10-19T10:11:25;99406.88;;;16.20;100.00
80180;BME280;69505;52.134;5.438;2023-10-19T10:13:56;99401.13;;;16.23;100.00
80180;BME280;69505;52.134;5.438;2023-10-19T10:16:28;99414.28;;;16.18;100.00
80180;BME280;69505;52.134;5.438;2023-10-19T10:18:58;99406.13;;;16.05;100.00
80180;BME280;69505;52.134;5.438;2023-10-19T10:21:29;99409.47;;;15.92;100.00
80180;BME280;69505;52.134;5.438;2023-10-19T10:23:58;99415.75;;;15.84;100.00
80180;BME280;69505;52.134;5.438;2023-10-19T10:26:28;99419.91;;;15.87;100.00
80180;BME280;69505;52.134;5.438;2023-10-19T10:29:08;99420.84;;;15.94;100.00
80180;BME280;69505;52.134;5.438;2023-10-19T10:31:50;99425.50;;;16.07;100.00
80180;BME280;69505;52.134;5.438;2023-10-19T10:37:16;99408.53;;;16.21;100.00
80180;BME280;69505;52.134;5.438;2023-10-19T10:39:42;99405.72;;;16.29;100.00
80180;BME280;69505;52.134;5.438;2023-10-19T10:42:12;99407.88;;;16.34;100.00
80180;BME280;69505;52.134;5.438;2023-10-19T10:44:39;99402.69;;;16.32;100.00
80180;BME280;69505;52.134;5.438;2023-10-19T10:47:17;99398.78;;;16.35;100.00
80180;BME280;69505;52.134;5.438;2023-10-19T10:49:58;99408.28;;;16.37;100.00
80180;BME280;69505;52.134;5.438;2023-10-19T10:52:29;99400.19;;;16.31;100.00
80180;BME280;69505;52.134;5.438;2023-10-19T10:55:17;99401.41;;;16.28;100.00
80180;BME280;69505;52.134;5.438;2023-10-19T10:57:44;99382.19;;;16.24;100.00
80180;BME280;69505;52.134;5.438;2023-10-19T11:00:15;99379.16;;;16.28;100.00
80180;BME280;69505;52.134;5.438;2023-10-19T11:02:43;99378.13;;;16.29;100.00
80180;BME280;69505;52.134;5.438;2023-10-19T11:05:20;99376.06;;;16.31;100.00
80180;BME280;69505;52.134;5.438;2023-10-19T11:10:36;99370.69;;;16.52;100.00
80180;BME280;69505;52.134;5.438;2023-10-19T11:13:04;99368.50;;;16.62;100.00
80180;BME280;69505;52.134;5.438;2023-10-19T11:15:33;99369.41;;;16.70;100.00
80180;BME280;69505;52.134;5.438;2023-10-19T11:18:00;99364.69;;;16.72;100.00
80180;BME280;69505;52.134;5.438;2023-10-19T11:20:28;99371.31;;;16.76;100.00
80180;BME280;69505;52.134;5.438;2023-10-19T11:22:56;99368.53;;;16.84;100.00
80180;BME280;69505;52.134;5.438;2023-10-19T11:25:25;99373.06;;;16.90;100.00
80180;BME280;69505;52.134;5.438;2023-10-19T11:27:59;99367.94;;;16.89;100.00
80180;BME280;69505;52.134;5.438;2023-10-19T11:30:31;99372.41;;;16.81;100.00
80180;BME280;69505;52.134;5.438;2023-10-19T11:32:58;99371.09;;;16.77;100.00
80180;BME280;69505;52.134;5.438;2023-10-19T11:35:30;99358.16;;;16.81;100.00
80180;BME280;69505;52.134;5.438;2023-10-19T11:37:59;99356.34;;;16.88;100.00
80180;BME280;69505;52.134;5.438;2023-10-19T11:40:26;99367.41;;;17.07;100.00
80180;BME280;69505;52.134;5.438;2023-10-19T11:42:54;99368.13;;;17.22;100.00
80180;BME280;69505;52.134;5.438;2023-10-19T11:45:25;99361.22;;;17.41;100.00
80180;BME280;69505;52.134;5.438;2023-10-19T11:47:52;99355.53;;;17.64;100.00
80180;BME280;69505;52.134;5.438;2023-10-19T11:50:19;99353.50;;;17.79;100.00
80180;BME280;69505;52.134;5.438;2023-10-19T11:52:46;99345.50;;;17.86;100.00
80180;BME280;69505;52.134;5.438;2023-10-19T11:55:13;99344.69;;;17.92;100.00
80180;BME280;69505;52.134;5.438;2023-10-19T11:57:43;99344.25;;;17.95;100.00
80180;BME280;69505;52.134;5.438;2023-10-19T12:00:11;99341.91;;;17.72;100.00
80180;BME280;69505;52.134;5.438;2023-10-19T12:02:40;99336.72;;;17.64;100.00
80180;BME280;69505;52.134;5.438;2023-10-19T12:05:10;99340.44;;;17.63;100.00
80180;BME280;69505;52.134;5.438;2023-10-19T12:07:37;99336.94;;;17.69;100.00
80180;BME280;69505;52.134;5.438;2023-10-19T12:10:07;99328.47;;;17.72;100.00
80180;BME280;69505;52.134;5.438;2023-10-19T12:12:38;99319.56;;;17.65;100.00
80180;BME280;69505;52.134;5.438;2023-10-19T12:15:19;99325.09;;;17.50;100.00
80180;BME280;69505;52.134;5.438;2023-10-19T12:17:49;99327.13;;;17.41;100.00
80180;BME280;69505;52.134;5.438;2023-10-19T12:20:17;99331.25;;;17.37;100.00
80180;BME280;69505;52.134;5.438;2023-10-19T12:22:49;99338.03;;;17.33;100.00
80180;BME280;69505;52.134;5.438;2023-10-19T12:25:20;99339.66;;;17.28;100.00
80180;BME280;69505;52.134;5.438;2023-10-19T12:28:00;99335.53;;;17.25;100.00
80180;BME280;69505;52.134;5.438;2023-10-19T12:30:27;99331.19;;;17.24;100.00
80180;BME280;69505;52.134;5.438;2023-10-19T12:33:01;99328.50;;;17.24;100.00
80180;BME280;69505;52.134;5.438;2023-10-19T12:35:31;99315.28;;;17.22;100.00
80180;BME280;69505;52.134;5.438;2023-10-19T12:38:20;99310.72;;;17.16;100.00
80180;BME280;69505;52.134;5.438;2023-10-19T12:40:48;99309.91;;;17.16;100.00
80180;BME280;69505;52.134;5.438;2023-10-19T12:43:18;99309.69;;;17.17;100.00
80180;BME280;69505;52.134;5.438;2023-10-19T12:45:51;99309.91;;;17.16;100.00
80180;BME280;69505;52.134;5.438;2023-10-19T12:48:22;99312.31;;;17.11;100.00
80180;BME280;69505;52.134;5.438;2023-10-19T12:50:51;99314.38;;;17.09;100.00
80180;BME280;69505;52.134;5.438;2023-10-19T12:53:18;99313.75;;;17.07;100.00
80180;BME280;69505;52.134;5.438;2023-10-19T12:55:45;99319.34;;;17.05;100.00
80180;BME280;69505;52.134;5.438;2023-10-19T12:58:11;99316.84;;;17.03;100.00
80180;BME280;69505;52.134;5.438;2023-10-19T13:00:41;99302.31;;;16.91;100.00
80180;BME280;69505;52.134;5.438;2023-10-19T13:03:10;99296.97;;;16.91;100.00
80180;BME280;69505;52.134;5.438;2023-10-19T13:05:42;99304.53;;;16.81;100.00
80180;BME280;69505;52.134;5.438;2023-10-19T13:08:12;99301.59;;;16.76;100.00
80180;BME280;69505;52.134;5.438;2023-10-19T13:10:43;99311.47;;;16.75;100.00
80180;BME280;69505;52.134;5.438;2023-10-19T13:13:12;99315.97;;;16.68;100.00
80180;BME280;69505;52.134;5.438;2023-10-19T13:15:42;99321.94;;;16.63;100.00
80180;BME280;69505;52.134;5.438;2023-10-19T13:18:11;99312.34;;;16.54;100.00